Terminal Aerodrome Forecast
Issued by NWS

Home | Current Version | Previous Version | Text Only | Print | Product List | Glossary On
Versions: 1 2 3 4 5 6 7 8 9 10 11 12 13 14 15 16
000
FTUS44 KTSA 230600 AAA
TAFRVS
TAF AMD
KRVS 230657Z 2307/2406 14006KT P6SM VCSH BKN009 OVC014
     FM231500 14011KT P6SM OVC015
     FM232000 14012KT 5SM -RA BR BKN015
      TEMPO 2320/2324 2SM -TSRA BR BKN015CB
     FM240000 15012KT 3SM -TSRA BR BKN015CB=

USA.gov is the U.S. government's official web portal to all federal, state and local government web resources and services.